Scholls, Oregon
Current Conditions -  °F | °C
As of 2:53 AM on Friday 31 Oct 2014 (Local Time) from KHIO Reporting Station
Light Rain Light Rain  
Wind Chill: 56°   Ceiling: 4500
Heat Index: 56°   Visibility: 7mi
Dew Point: 55°   Wind: 6mph
Humidity: 97%   Direction: 140°SE
Pressure: 29.71"   Gusts: NA
Location:  45.4461°N, 122.983°W
Report Text: KHIO 310953Z AUTO 14005KT 7SM -RA SCT030 OVC045 13/13 A2971 RMK AO2 SLP059 P0001 T01330128 TSNO
Loading
Personal Weather Stations






























Interactive Weather Map
Tropical Storm Tracking
New forecast layout! Learn more

10-Day Weather Forecast

Advertisements
Track Severe Weather on mobile